Time;durP1;ratioP1;P1;durP2;ratioP2;P2;SDS_P1;SDS_P2;PMS_P1;PMS_P2;Temp;Humidity;BMP_temperature;BMP_pressure;BME280_temperature;BME280_humidity;BME280_pressure;Samples;Min_cycle;Max_cycle;Signal;HPM_P1;HPM_P2
2023/05/06 00:01:55;;;;;;;;;3.00;3.00;;;;;17.16;70.38;101218.31;4955586;28;45312;-71
2023/05/06 00:04:20;;;;;;;;;2.75;2.25;;;;;17.16;70.52;101217.47;4955989;28;46280;-71
2023/05/06 00:06:47;;;;;;;;;5.25;3.75;;;;;17.06;70.27;101211.66;4956234;28;45603;-71
2023/05/06 00:09:13;;;;;;;;;2.25;2.25;;;;;17.23;70.84;101237.75;4956641;28;45548;-71
2023/05/06 00:11:38;;;;;;;;;5.00;3.50;;;;;17.15;70.90;101232.75;5024921;28;45430;-71
2023/05/06 00:14:04;;;;;;;;;3.00;3.00;;;;;17.03;70.79;101215.38;4970377;28;47157;-72
2023/05/06 00:16:30;;;;;;;;;4.00;3.50;;;;;16.98;70.44;101203.97;5025214;28;45452;-71
2023/05/06 00:18:55;;;;;;;;;3.75;3.00;;;;;17.16;71.12;101239.91;4987671;27;45489;-71
2023/05/06 00:21:20;;;;;;;;;3.75;3.75;;;;;17.06;71.00;101218.88;4976503;28;46053;-71
2023/05/06 00:23:46;;;;;;;;;3.75;3.75;;;;;17.16;71.08;101233.66;4970166;28;45511;-71
2023/05/06 00:26:11;;;;;;;;;2.75;2.75;;;;;17.12;70.98;101226.66;4959450;28;45252;-71
2023/05/06 00:28:36;;;;;;;;;3.00;3.00;;;;;16.72;70.78;101167.53;4959204;28;45265;-71
2023/05/06 00:31:02;;;;;;;;;3.50;3.50;;;;;17.12;70.94;101229.34;4963438;28;45342;-71
2023/05/06 00:33:27;;;;;;;;;4.25;4.25;;;;;17.10;71.01;101228.56;4959790;28;45580;-71
2023/05/06 00:35:52;;;;;;;;;3.00;2.00;;;;;16.87;71.06;101194.69;4958984;28;45373;-71
2023/05/06 00:38:18;;;;;;;;;2.25;2.25;;;;;17.08;70.82;101222.38;4959274;28;45321;-71
2023/05/06 00:40:44;;;;;;;;;2.25;2.25;;;;;17.07;70.85;101217.94;4959609;28;45331;-71
2023/05/06 00:43:09;;;;;;;;;2.00;2.00;;;;;16.83;70.87;101177.78;4971735;28;45470;-71
2023/05/06 00:45:35;;;;;;;;;3.00;3.00;;;;;16.90;71.09;101190.00;4994597;28;45317;-71
2023/05/06 00:48:03;;;;;;;;;4.25;2.75;;;;;16.77;70.81;101170.88;4964650;28;45951;-71
2023/05/06 00:50:30;;;;;;;;;5.00;5.00;;;;;17.01;70.87;101209.22;4968020;28;45653;-71
2023/05/06 00:52:57;;;;;;;;;5.00;5.00;;;;;17.04;71.14;101219.84;4976826;28;47597;-71
2023/05/06 00:55:23;;;;;;;;;3.25;3.25;;;;;17.04;71.39;101230.63;4976678;28;45563;-71
2023/05/06 00:57:50;;;;;;;;;4.25;3.00;;;;;17.01;71.01;101211.03;4958828;28;45415;-71
2023/05/06 01:00:16;;;;;;;;;3.50;3.50;;;;;16.83;71.22;101191.25;4965756;28;45556;-71
2023/05/06 01:02:42;;;;;;;;;3.00;3.00;;;;;16.62;71.02;101158.16;4959399;28;46511;-71
2023/05/06 01:05:08;;;;;;;;;2.50;2.50;;;;;16.91;71.09;101216.03;4957406;28;45462;-71
2023/05/06 01:07:59;;;;;;;;;4.00;4.00;;;;;16.79;71.11;101195.03;4971628;28;45394;-71
2023/05/06 01:10:34;;;;;;;;;4.00;3.75;;;;;16.91;71.30;101212.47;4966743;28;45344;-71
2023/05/06 01:13:16;;;;;;;;;5.25;3.25;;;;;16.90;71.10;101214.28;4968909;28;45398;-71
2023/05/06 01:15:46;;;;;;;;;3.75;3.75;;;;;16.85;71.59;101197.47;4988608;28;45253;-71
2023/05/06 01:18:15;;;;;;;;;4.25;4.25;;;;;16.73;71.32;101181.91;5021778;27;45372;-71
2023/05/06 01:20:43;;;;;;;;;8.25;4.00;;;;;16.72;71.33;101191.78;4978035;28;45653;-71
2023/05/06 01:23:13;;;;;;;;;3.00;3.00;;;;;16.61;71.53;101172.63;4966118;28;46305;-71
2023/05/06 01:25:38;;;;;;;;;4.00;4.00;;;;;16.83;71.44;101211.00;4958463;28;45530;-71
2023/05/06 01:28:08;;;;;;;;;4.50;4.25;;;;;16.82;71.50;101202.97;4956808;28;45516;-71
2023/05/06 01:30:42;;;;;;;;;4.25;4.00;;;;;16.87;71.60;101206.34;4963977;27;45585;-71
2023/05/06 01:33:28;;;;;;;;;3.75;3.75;;;;;16.62;71.70;101168.94;4963460;28;45989;-71
2023/05/06 01:36:14;;;;;;;;;3.50;3.00;;;;;16.85;71.58;101201.03;4958553;28;45411;-71
2023/05/06 01:38:46;;;;;;;;;6.50;4.00;;;;;16.77;71.76;101191.56;4958553;28;45580;-71
2023/05/06 01:41:15;;;;;;;;;5.75;4.75;;;;;16.54;71.50;101155.88;4957961;28;45321;-71
2023/05/06 01:43:42;;;;;;;;;5.00;5.00;;;;;16.75;71.58;101193.47;4967661;28;47601;-71
2023/05/06 01:46:12;;;;;;;;;5.25;5.25;;;;;16.37;71.49;101140.56;4996024;28;45383;-71
2023/05/06 01:48:38;;;;;;;;;4.50;4.50;;;;;16.63;71.62;101181.50;4973020;28;45380;-71
2023/05/06 01:51:04;;;;;;;;;3.50;3.50;;;;;16.54;71.63;101161.28;4963074;28;45441;-71
2023/05/06 01:53:31;;;;;;;;;3.75;3.50;;;;;16.51;71.61;101161.44;4968171;28;46461;-71
2023/05/06 01:55:57;;;;;;;;;6.50;4.50;;;;;16.65;71.63;101184.97;4958131;28;45354;-71
2023/05/06 01:58:22;;;;;;;;;5.50;4.00;;;;;16.57;71.65;101163.81;4971422;28;45533;-71
2023/05/06 02:00:47;;;;;;;;;5.75;5.00;;;;;16.76;71.62;101193.38;4971052;28;45876;-71
2023/05/06 02:03:12;;;;;;;;;4.25;4.00;;;;;16.45;71.86;101146.41;4957912;28;45505;-71
2023/05/06 02:05:38;;;;;;;;;4.00;4.00;;;;;16.50;71.65;101146.19;4958109;28;45542;-71
2023/05/06 02:08:03;;;;;;;;;4.00;4.00;;;;;16.44;71.93;101138.44;4960907;28;45414;-71
2023/05/06 02:10:28;;;;;;;;;5.00;5.00;;;;;16.67;72.29;101189.34;4964118;28;45499;-71
2023/05/06 02:12:54;;;;;;;;;4.00;4.00;;;;;16.59;71.87;101175.38;5027245;27;46632;-71
2023/05/06 02:15:19;;;;;;;;;7.75;5.50;;;;;16.68;71.95;101185.69;4969324;28;45474;-71
2023/05/06 02:17:45;;;;;;;;;4.25;3.25;;;;;16.48;72.26;101159.75;5039327;27;45385;-71
2023/05/06 02:20:10;;;;;;;;;4.00;3.00;;;;;16.64;72.19;101200.28;4963451;28;45308;-71
2023/05/06 02:22:35;;;;;;;;;4.00;4.00;;;;;16.49;72.16;101176.81;4957840;28;45467;-71
2023/05/06 02:25:01;;;;;;;;;5.00;5.00;;;;;16.57;72.16;101185.38;4959177;28;45529;-71
2023/05/06 02:27:26;;;;;;;;;4.00;4.00;;;;;16.48;72.39;101178.59;4989914;28;45407;-71
2023/05/06 02:29:52;;;;;;;;;4.00;3.75;;;;;16.43;72.16;101159.09;4961533;28;45625;-71
2023/05/06 02:32:17;;;;;;;;;4.00;4.00;;;;;16.56;72.22;101194.41;4957861;28;45581;-71
2023/05/06 02:34:42;;;;;;;;;4.75;4.75;;;;;16.58;72.06;101197.03;4958573;28;45281;-71
2023/05/06 02:37:08;;;;;;;;;5.00;3.75;;;;;16.50;72.65;101189.31;4957787;28;45509;-71
2023/05/06 02:39:33;;;;;;;;;4.50;4.50;;;;;16.59;72.66;101202.34;4956877;28;45432;-71
2023/05/06 02:41:58;;;;;;;;;2.00;2.00;;;;;16.60;72.07;101197.81;4972650;28;47864;-71
2023/05/06 02:44:24;;;;;;;;;6.00;5.00;;;;;16.38;72.44;101163.00;4994134;28;45326;-71
2023/05/06 02:46:49;;;;;;;;;2.00;2.00;;;;;16.48;72.44;101181.31;4970147;28;45400;-71
2023/05/06 02:49:14;;;;;;;;;3.50;3.50;;;;;16.40;72.31;101170.03;4972942;28;45421;-71
2023/05/06 02:51:40;;;;;;;;;4.00;4.00;;;;;16.37;72.37;101163.94;4957644;28;45391;-71
2023/05/06 02:54:05;;;;;;;;;3.00;3.00;;;;;16.32;72.56;101150.69;4957394;28;46853;-71
2023/05/06 02:56:30;;;;;;;;;4.50;4.00;;;;;16.50;72.28;101181.22;4957696;28;45293;-71
2023/05/06 02:58:56;;;;;;;;;4.00;4.00;;;;;16.32;72.38;101153.38;4965654;28;45371;-71
2023/05/06 03:01:21;;;;;;;;;3.25;3.25;;;;;16.53;72.74;101186.47;4956855;28;47243;-71
2023/05/06 03:03:46;;;;;;;;;4.00;4.00;;;;;16.55;72.58;101187.25;4967234;28;45616;-71
2023/05/06 03:06:12;;;;;;;;;1.00;1.00;;;;;16.37;72.31;101145.97;4957601;28;45415;-71
2023/05/06 03:08:37;;;;;;;;;3.25;3.25;;;;;16.41;72.69;101158.31;4961336;28;45556;-71
2023/05/06 03:11:02;;;;;;;;;4.00;4.00;;;;;16.47;72.75;101171.50;4988456;28;46066;-71
2023/05/06 03:13:28;;;;;;;;;3.50;2.75;;;;;16.49;72.73;101164.19;5003711;27;45601;-71
2023/05/06 03:15:53;;;;;;;;;5.50;4.25;;;;;16.36;72.81;101141.50;4972068;28;45417;-71
2023/05/06 03:18:19;;;;;;;;;5.00;4.50;;;;;16.33;72.73;101130.88;4974291;28;45630;-71
2023/05/06 03:20:47;;;;;;;;;3.50;3.50;;;;;16.47;72.76;101151.72;4957902;28;45501;-71
2023/05/06 03:23:12;;;;;;;;;4.75;4.75;;;;;16.51;72.76;101156.03;4956184;28;45340;-71
2023/05/06 03:25:38;;;;;;;;;4.50;4.50;;;;;16.47;72.64;101158.00;4957176;28;45501;-71
2023/05/06 03:28:04;;;;;;;;;3.00;3.00;;;;;16.47;72.78;101159.81;4958404;28;45455;-71
2023/05/06 03:30:29;;;;;;;;;4.00;4.00;;;;;16.57;72.98;101176.41;4957571;28;46288;-71
2023/05/06 03:32:55;;;;;;;;;4.25;3.75;;;;;16.55;72.81;101170.22;4960245;28;45333;-71
2023/05/06 03:35:21;;;;;;;;;5.00;5.00;;;;;16.26;73.40;101127.63;4969450;28;45532;-71
2023/05/06 03:37:46;;;;;;;;;6.00;4.00;;;;;16.49;73.03;101163.34;4955413;28;45406;-71
2023/05/06 03:40:12;;;;;;;;;4.75;4.75;;;;;16.20;72.92;101122.53;4956741;28;46599;-71
2023/05/06 03:42:37;;;;;;;;;4.50;3.25;;;;;16.37;72.78;101158.53;4956686;28;45410;-71
2023/05/06 03:45:05;;;;;;;;;6.00;6.00;;;;;16.40;72.81;101158.38;4999259;28;45421;-72
2023/05/06 03:47:31;;;;;;;;;5.75;4.50;;;;;16.25;73.05;101141.16;4966771;28;45462;-71
2023/05/06 03:49:56;;;;;;;;;4.75;4.25;;;;;16.35;73.13;101152.34;4966430;28;45357;-71
2023/05/06 03:52:21;;;;;;;;;5.25;4.75;;;;;16.20;73.09;101132.44;4959756;28;45370;-71
2023/05/06 03:54:47;;;;;;;;;5.00;4.00;;;;;16.26;73.07;101138.41;4959895;28;45253;-71
2023/05/06 03:57:12;;;;;;;;;3.25;2.25;;;;;16.28;73.02;101147.28;4959733;28;45415;-71
2023/05/06 03:59:37;;;;;;;;;4.00;3.75;;;;;16.29;73.12;101158.94;4966664;28;45521;-71
2023/05/06 04:02:03;;;;;;;;;5.75;4.25;;;;;16.09;73.48;101130.31;4959723;28;45298;-71
2023/05/06 04:04:28;;;;;;;;;4.25;4.25;;;;;16.07;73.18;101121.41;4976862;28;45444;-71
2023/05/06 04:06:54;;;;;;;;;6.25;6.00;;;;;16.14;73.73;101143.50;4965850;28;45536;-72
2023/05/06 04:09:19;;;;;;;;;4.00;4.00;;;;;16.17;73.08;101155.03;4973590;27;47780;-71
2023/05/06 04:11:44;;;;;;;;;5.00;4.00;;;;;16.16;73.48;101147.88;5025785;28;45398;-71
2023/05/06 04:14:10;;;;;;;;;5.25;5.25;;;;;16.12;73.34;101135.50;4971331;28;45493;-71
2023/05/06 04:16:35;;;;;;;;;4.75;3.25;;;;;16.21;73.54;101151.22;5033040;28;45430;-71
2023/05/06 04:19:02;;;;;;;;;4.75;4.75;;;;;16.18;73.44;101142.44;4982125;27;45505;-71
2023/05/06 04:21:28;;;;;;;;;6.50;5.00;;;;;16.34;73.48;101166.78;4958018;28;45429;-71
2023/05/06 04:23:54;;;;;;;;;5.00;5.00;;;;;16.24;74.01;101158.31;4959236;28;45420;-71
2023/05/06 04:26:20;;;;;;;;;4.25;4.25;;;;;16.10;73.65;101134.72;4959465;28;45499;-71
2023/05/06 04:28:45;;;;;;;;;4.00;3.00;;;;;16.24;73.97;101145.69;4959930;28;46388;-71
2023/05/06 04:31:13;;;;;;;;;6.00;4.50;;;;;16.29;73.79;101150.84;4959333;28;45322;-71
2023/05/06 04:33:38;;;;;;;;;4.50;4.00;;;;;16.14;73.74;101120.16;4942156;28;45328;-71
2023/05/06 04:36:04;;;;;;;;;6.00;6.00;;;;;16.10;73.75;101110.47;4959302;28;45392;-71
2023/05/06 04:38:30;;;;;;;;;6.50;5.00;;;;;16.21;73.78;101131.50;4963880;28;45360;-71
2023/05/06 04:40:56;;;;;;;;;4.00;4.00;;;;;16.03;73.70;101098.28;4977337;28;45332;-71
2023/05/06 04:43:21;;;;;;;;;5.25;5.25;;;;;16.35;73.92;101142.44;4971798;28;45319;-71
2023/05/06 04:45:49;;;;;;;;;5.50;5.00;;;;;16.25;74.01;101119.63;4997053;28;45457;-71
2023/05/06 04:48:17;;;;;;;;;6.50;6.50;;;;;16.19;74.07;101109.16;4961646;28;45663;-71
2023/05/06 04:50:43;;;;;;;;;6.00;5.00;;;;;16.10;74.01;101097.91;4969017;28;45382;-71
2023/05/06 04:53:08;;;;;;;;;8.25;6.00;;;;;16.18;73.81;101110.09;4959120;28;45454;-71
2023/05/06 04:55:34;;;;;;;;;5.00;5.00;;;;;16.14;73.97;101100.41;4959082;28;45345;-71
2023/05/06 04:57:59;;;;;;;;;5.75;5.75;;;;;16.28;74.02;101138.31;4958753;28;45502;-71
2023/05/06 05:00:26;;;;;;;;;6.00;5.00;;;;;15.98;74.12;101085.03;4973728;28;45470;-71
2023/05/06 05:02:51;;;;;;;;;7.00;6.75;;;;;16.16;74.06;101110.19;4962736;28;45800;-71
2023/05/06 05:05:17;;;;;;;;;5.75;5.75;;;;;16.36;74.13;101151.44;4978917;28;45414;-71
2023/05/06 05:07:42;;;;;;;;;6.75;6.75;;;;;16.14;73.97;101124.66;4990541;27;46244;-71
2023/05/06 05:10:09;;;;;;;;;8.25;7.75;;;;;16.28;74.30;101132.94;4963367;28;45415;-71
2023/05/06 05:12:34;;;;;;;;;9.00;9.00;;;;;16.37;74.04;101161.22;5028654;28;45430;-71
2023/05/06 05:14:59;;;;;;;;;7.00;7.00;;;;;16.23;74.40;101137.69;4973420;28;45411;-71
2023/05/06 05:17:25;;;;;;;;;9.00;9.00;;;;;16.28;74.43;101143.72;5048465;28;46921;-71
2023/05/06 05:19:51;;;;;;;;;11.00;9.75;;;;;16.11;74.31;101131.94;4974263;28;45509;-71
2023/05/06 05:22:17;;;;;;;;;8.00;7.75;;;;;16.19;74.53;101147.75;4959917;28;45381;-71
2023/05/06 05:24:42;;;;;;;;;7.75;7.00;;;;;16.18;74.46;101143.28;4958681;28;45285;-71
2023/05/06 05:27:08;;;;;;;;;8.00;8.00;;;;;16.11;74.30;101133.78;4958315;28;45319;-71
2023/05/06 05:29:33;;;;;;;;;10.50;9.00;;;;;16.08;74.54;101134.78;4958389;28;45314;-71
2023/05/06 05:32:01;;;;;;;;;10.00;9.50;;;;;16.24;74.61;101169.06;4960261;28;46437;-71
2023/05/06 05:34:26;;;;;;;;;8.50;8.50;;;;;16.11;74.72;101153.50;4966806;28;45585;-71
2023/05/06 05:36:52;;;;;;;;;11.00;9.00;;;;;16.29;74.62;101189.44;4958032;28;45455;-71
2023/05/06 05:39:17;;;;;;;;;9.75;9.75;;;;;16.35;74.94;101188.25;4967094;28;45398;-71
2023/05/06 05:41:43;;;;;;;;;8.25;8.00;;;;;16.08;74.85;101152.78;4963866;28;45541;-71
2023/05/06 05:44:08;;;;;;;;;9.50;9.00;;;;;16.04;74.76;101149.38;4992371;28;45522;-71
2023/05/06 05:46:33;;;;;;;;;9.75;7.00;;;;;16.28;74.88;101184.13;4981303;27;45472;-71
2023/05/06 05:48:59;;;;;;;;;8.50;8.50;;;;;16.30;74.34;101193.00;4969688;28;45611;-71
2023/05/06 05:51:24;;;;;;;;;8.75;8.75;;;;;16.36;74.73;101197.22;4958867;28;45586;-71
2023/05/06 05:53:50;;;;;;;;;8.25;8.00;;;;;16.08;75.25;101142.88;4958148;28;45460;-71
2023/05/06 05:56:16;;;;;;;;;7.00;6.50;;;;;16.26;74.88;101170.72;4989635;28;45432;-71
2023/05/06 05:58:41;;;;;;;;;7.25;7.25;;;;;16.27;75.23;101179.66;4969146;28;45247;-71
2023/05/06 06:01:07;;;;;;;;;9.25;8.50;;;;;16.30;75.15;101180.41;4957451;28;45509;-71
2023/05/06 06:03:32;;;;;;;;;11.50;7.75;;;;;16.32;74.96;101188.41;4956579;28;45370;-71
2023/05/06 06:05:58;;;;;;;;;10.25;9.50;;;;;16.27;74.98;101179.66;4972971;28;46121;-71
2023/05/06 06:08:23;;;;;;;;;8.75;8.00;;;;;16.21;74.90;101180.00;4958497;28;45493;-71
2023/05/06 06:10:48;;;;;;;;;9.00;7.00;;;;;16.04;74.85;101145.81;4979295;28;45296;-71
2023/05/06 06:13:14;;;;;;;;;12.00;10.75;;;;;16.38;75.14;101206.97;5001408;27;45505;-74
2023/05/06 06:15:40;;;;;;;;;11.00;11.00;;;;;16.12;75.27;101162.44;4967580;28;46076;-74
2023/05/06 06:18:07;;;;;;;;;10.00;8.75;;;;;16.15;75.17;101167.69;4963596;28;45405;-75
2023/05/06 06:20:33;;;;;;;;;10.00;9.25;;;;;16.21;75.23;101178.16;4957799;28;45477;-76
2023/05/06 06:22:58;;;;;;;;;9.00;8.25;;;;;16.43;75.46;101209.44;4966443;28;45516;-76
2023/05/06 06:25:24;;;;;;;;;10.00;10.00;;;;;16.23;75.35;101178.94;4957262;28;46712;-74
2023/05/06 06:27:49;;;;;;;;;3.00;3.00;;;;;16.25;75.10;101187.81;4963987;28;45546;-76
2023/05/06 06:30:15;;;;;;;;;9.00;8.75;;;;;16.17;75.15;101160.41;4968547;28;45401;-76
2023/05/06 06:32:48;;;;;;;;;9.25;8.50;;;;;16.52;75.41;101211.66;4960024;28;45777;-76
2023/05/06 06:35:14;;;;;;;;;8.00;7.25;;;;;16.45;75.38;101200.31;4977090;28;48374;-75
2023/05/06 06:37:39;;;;;;;;;10.25;9.75;;;;;16.47;74.91;101200.22;4981215;28;45424;-76
2023/05/06 06:40:05;;;;;;;;;10.50;7.75;;;;;16.36;74.96;101176.53;4978226;28;45309;-76
2023/05/06 06:42:31;;;;;;;;;6.00;6.00;;;;;16.28;75.09;101160.75;4956241;28;45398;-76
2023/05/06 06:44:56;;;;;;;;;10.75;8.50;;;;;16.62;75.02;101204.88;5017878;28;46935;-76
2023/05/06 06:47:22;;;;;;;;;9.00;9.00;;;;;16.36;75.07;101152.28;4978591;27;45520;-76
2023/05/06 06:49:47;;;;;;;;;10.00;9.50;;;;;16.36;75.15;101146.03;4963580;28;45691;-76
2023/05/06 06:52:12;;;;;;;;;9.75;9.75;;;;;16.52;74.72;101168.53;4971868;28;45535;-74
2023/05/06 06:54:38;;;;;;;;;8.00;8.00;;;;;16.46;74.68;101158.94;4963457;28;48127;-74
2023/05/06 06:57:04;;;;;;;;;9.75;9.00;;;;;16.43;74.92;101153.72;4970057;28;45426;-74
2023/05/06 06:59:30;;;;;;;;;9.75;9.00;;;;;16.68;74.77;101195.59;4957055;28;45493;-75
2023/05/06 07:01:55;;;;;;;;;8.75;8.75;;;;;16.45;74.99;101148.25;4957072;28;45425;-74
2023/05/06 07:04:20;;;;;;;;;6.50;5.50;;;;;16.63;74.51;101185.03;4961990;28;46904;-74
2023/05/06 07:06:46;;;;;;;;;11.25;9.00;;;;;16.64;74.93;101178.72;4966536;28;45488;-74
2023/05/06 07:09:12;;;;;;;;;11.25;10.75;;;;;16.80;75.19;101208.44;4971380;28;45318;-76
2023/05/06 07:11:37;;;;;;;;;11.25;10.00;;;;;16.73;74.99;101190.84;4981215;28;45364;-76
2023/05/06 07:14:03;;;;;;;;;6.00;6.00;;;;;16.71;75.23;101181.97;4963916;28;46368;-76
2023/05/06 07:16:28;;;;;;;;;10.00;10.00;;;;;16.64;74.96;101159.00;4986775;28;45522;-76
2023/05/06 07:18:53;;;;;;;;;8.00;8.00;;;;;16.70;75.23;101172.13;4960388;28;45315;-75
2023/05/06 07:21:19;;;;;;;;;8.50;7.00;;;;;16.75;75.05;101178.16;4962787;28;45359;-75
2023/05/06 07:23:44;;;;;;;;;9.75;9.75;;;;;16.99;74.97;101213.81;4969693;28;46934;-74
2023/05/06 07:26:10;;;;;;;;;8.75;8.75;;;;;16.77;75.00;101181.66;4966727;28;45445;-76
2023/05/06 07:28:35;;;;;;;;;12.00;10.25;;;;;16.83;75.32;101177.78;4964599;28;45979;-75
2023/05/06 07:31:00;;;;;;;;;8.75;8.25;;;;;16.74;74.75;101162.94;4962075;28;46073;-74
2023/05/06 07:33:26;;;;;;;;;9.00;8.75;;;;;16.85;75.05;101175.91;4992115;28;45509;-74
2023/05/06 07:35:54;;;;;;;;;11.50;9.00;;;;;16.92;75.04;101188.09;4966231;28;45393;-74
2023/05/06 07:38:21;;;;;;;;;10.50;9.00;;;;;17.03;75.00;101196.50;4968662;28;45524;-73
2023/05/06 07:40:47;;;;;;;;;12.50;11.50;;;;;16.93;75.09;101180.91;5014565;28;45906;-72
2023/05/06 07:43:13;;;;;;;;;9.75;9.00;;;;;17.05;74.85;101201.81;4964316;28;46758;-72
2023/05/06 07:45:38;;;;;;;;;11.50;8.50;;;;;17.10;75.08;101213.25;4969809;28;45845;-73
2023/05/06 07:48:04;;;;;;;;;11.00;9.75;;;;;17.14;74.74;101214.84;4967875;28;45527;-73
2023/05/06 07:50:30;;;;;;;;;10.25;10.25;;;;;16.96;74.78;101170.81;4965221;28;45400;-73
2023/05/06 07:52:56;;;;;;;;;12.25;10.50;;;;;17.00;74.84;101174.22;4955329;28;45818;-73
2023/05/06 07:55:21;;;;;;;;;10.00;8.00;;;;;17.25;74.49;101216.09;4970370;28;46183;-74
2023/05/06 07:57:48;;;;;;;;;8.75;8.25;;;;;17.07;74.67;101185.56;4957012;28;45598;-73
2023/05/06 08:00:13;;;;;;;;;13.25;9.75;;;;;17.12;74.47;101187.06;4957482;28;45301;-73
2023/05/06 08:02:42;;;;;;;;;8.50;8.50;;;;;17.17;74.93;101194.91;4956933;28;46251;-74
2023/05/06 08:05:11;;;;;;;;;9.00;7.50;;;;;17.12;74.52;101178.97;4961850;28;45418;-73
2023/05/06 08:07:36;;;;;;;;;11.75;11.00;;;;;17.23;74.53;101189.19;4961174;28;45516;-74
2023/05/06 08:10:02;;;;;;;;;9.25;9.25;;;;;17.49;74.71;101231.00;4956117;28;47156;-73
2023/05/06 08:12:27;;;;;;;;;9.50;8.50;;;;;17.43;74.55;101216.94;4993007;28;46193;-73
2023/05/06 08:14:54;;;;;;;;;6.75;6.75;;;;;17.51;74.50;101220.97;4962537;28;45497;-74
2023/05/06 08:17:19;;;;;;;;;8.75;7.25;;;;;17.62;74.46;101227.63;4980632;28;45629;-74
2023/05/06 08:19:44;;;;;;;;;6.75;4.75;;;;;17.66;74.76;101230.06;4955697;28;45441;-75
2023/05/06 08:22:10;;;;;;;;;2.50;2.50;;;;;17.50;74.29;101196.78;4970351;28;48524;-74
2023/05/06 08:24:35;;;;;;;;;7.25;7.25;;;;;17.66;74.49;101221.09;4955027;28;45609;-74
2023/05/06 08:27:01;;;;;;;;;8.50;6.00;;;;;17.56;74.24;101210.81;4954464;28;45411;-74
2023/05/06 08:29:26;;;;;;;;;6.50;6.50;;;;;17.56;74.06;101205.41;4969089;28;45631;-72
2023/05/06 08:31:51;;;;;;;;;7.25;5.50;;;;;17.58;73.88;101194.53;4955913;28;45346;-72
2023/05/06 08:34:19;;;;;;;;;5.50;5.50;;;;;17.59;73.95;101188.16;4970271;28;56031;-73
2023/05/06 08:36:44;;;;;;;;;5.75;5.75;;;;;17.67;74.24;101190.44;4979024;28;45393;-72
2023/05/06 08:39:10;;;;;;;;;6.00;6.00;;;;;17.79;74.16;101214.06;4990112;28;45508;-72
2023/05/06 08:41:38;;;;;;;;;4.25;4.25;;;;;17.73;73.44;101188.28;4976151;28;46956;-72
2023/05/06 08:44:04;;;;;;;;;4.75;4.25;;;;;17.76;73.51;101193.50;4979469;28;45258;-72
2023/05/06 08:46:30;;;;;;;;;5.00;5.00;;;;;17.83;73.78;101202.13;5010578;28;45451;-72
2023/05/06 08:48:56;;;;;;;;;4.75;4.75;;;;;17.99;73.85;101218.38;4960585;28;45385;-72
2023/05/06 08:51:27;;;;;;;;;6.50;5.50;;;;;18.06;72.96;101219.81;4987228;28;46372;-71
2023/05/06 08:53:54;;;;;;;;;6.50;5.50;;;;;17.72;72.92;101156.81;4978693;28;45572;-72
2023/05/06 08:56:27;;;;;;;;;4.25;4.25;;;;;18.01;72.60;101194.00;4959181;28;45504;-72
2023/05/06 08:58:54;;;;;;;;;5.75;4.75;;;;;18.01;72.48;101192.19;4966817;28;45454;-72
2023/05/06 09:01:19;;;;;;;;;3.75;3.00;;;;;18.22;72.64;101221.63;4986804;27;45511;-72
2023/05/06 09:03:46;;;;;;;;;4.25;4.25;;;;;18.03;72.45;101186.69;4960595;28;45367;-72
2023/05/06 09:06:12;;;;;;;;;4.25;4.00;;;;;18.03;71.82;101181.28;4959091;28;45591;-72
2023/05/06 09:08:37;;;;;;;;;3.00;3.00;;;;;18.22;71.75;101213.53;4964837;28;45416;-73
2023/05/06 09:11:18;;;;;;;;;4.50;4.50;;;;;18.05;71.51;101182.06;5005725;28;46156;-72
2023/05/06 09:13:43;;;;;;;;;6.25;4.50;;;;;18.28;71.51;101219.44;4958437;28;45571;-72
2023/05/06 09:16:08;;;;;;;;;5.00;3.50;;;;;18.33;71.69;101220.06;4987420;28;45578;-73
2023/05/06 09:18:36;;;;;;;;;5.75;5.50;;;;;18.38;71.88;101224.34;4978138;28;45272;-73
2023/05/06 09:21:03;;;;;;;;;3.50;3.25;;;;;18.21;71.16;101195.56;4975653;28;48300;-72
2023/05/06 09:23:28;;;;;;;;;3.50;3.50;;;;;18.18;70.88;101185.81;4978132;28;45582;-72
2023/05/06 09:25:55;;;;;;;;;5.75;5.50;;;;;18.36;71.46;101213.63;4978046;28;45397;-73
2023/05/06 09:28:21;;;;;;;;;4.50;3.50;;;;;18.23;71.22;101190.97;4969607;28;45883;-73
2023/05/06 09:30:46;;;;;;;;;4.00;4.00;;;;;18.41;71.13;101208.81;4958481;28;45380;-72
2023/05/06 09:33:12;;;;;;;;;4.00;4.00;;;;;18.31;70.53;101194.97;4957970;28;45478;-72
2023/05/06 09:35:39;;;;;;;;;4.50;2.75;;;;;18.55;70.73;101221.53;4971735;28;45562;-73
2023/05/06 09:38:06;;;;;;;;;5.25;4.25;;;;;18.61;70.31;101223.88;4958437;28;45330;-73
2023/05/06 09:40:32;;;;;;;;;4.50;3.50;;;;;18.43;70.30;101185.25;4969751;28;45452;-73
2023/05/06 09:42:59;;;;;;;;;3.25;3.25;;;;;18.63;69.04;101221.94;4973536;28;45822;-73
2023/05/06 09:45:25;;;;;;;;;5.00;5.00;;;;;18.58;69.52;101202.41;5033363;28;45450;-72
2023/05/06 09:47:52;;;;;;;;;4.75;4.75;;;;;18.66;69.19;101201.94;4959069;28;45629;-70
2023/05/06 09:50:20;;;;;;;;;4.00;4.00;;;;;18.52;69.46;101176.59;4971271;28;45911;-74
2023/05/06 09:52:47;;;;;;;;;5.00;3.50;;;;;18.64;69.08;101191.25;4958323;28;45416;-74
2023/05/06 09:55:13;;;;;;;;;4.75;3.00;;;;;18.79;68.39;101202.97;4973178;28;45426;-74
2023/05/06 09:57:40;;;;;;;;;3.00;3.00;;;;;18.76;68.41;101194.16;4958211;28;45457;-74
2023/05/06 10:00:08;;;;;;;;;3.00;3.00;;;;;18.53;68.02;101142.34;4973242;28;47315;-75
2023/05/06 10:02:33;;;;;;;;;6.25;5.00;;;;;18.70;68.20;101171.06;4958016;28;45256;-74
2023/05/06 10:05:04;;;;;;;;;5.25;5.25;;;;;18.83;68.10;101190.19;4958026;28;45482;-74
2023/05/06 10:07:31;;;;;;;;;3.75;3.00;;;;;18.83;67.73;101188.34;4958083;28;45457;-74
2023/05/06 10:09:57;;;;;;;;;9.25;4.00;;;;;18.75;67.29;101173.50;4965777;28;45721;-74
2023/05/06 10:12:24;;;;;;;;;4.00;2.75;;;;;18.73;67.72;101165.50;5008134;28;45812;-77
2023/05/06 10:14:49;;;;;;;;;4.00;3.75;;;;;18.83;67.42;101188.34;4964261;28;45543;-75
2023/05/06 10:17:17;;;;;;;;;3.25;3.25;;;;;18.80;67.35;101171.41;4975743;28;45555;-75
2023/05/06 10:19:46;;;;;;;;;2.75;2.75;;;;;18.81;67.46;101174.03;4961613;28;45466;-74
2023/05/06 10:22:19;;;;;;;;;3.50;3.50;;;;;19.03;67.42;101194.41;4977284;28;45532;-74
2023/05/06 10:25:05;;;;;;;;;5.25;4.00;;;;;18.95;66.74;101175.91;4959730;28;45515;-74
2023/05/06 10:27:34;;;;;;;;;4.00;3.00;;;;;18.84;66.87;101154.94;4958127;28;45461;-76
2023/05/06 10:30:00;;;;;;;;;6.25;3.00;;;;;18.87;66.07;101151.16;4963000;28;45790;-76
2023/05/06 10:32:30;;;;;;;;;3.50;3.50;;;;;18.92;66.86;101153.59;4959493;28;45513;-75
2023/05/06 10:35:08;;;;;;;;;4.00;3.00;;;;;18.98;66.33;101147.81;4967840;28;45537;-73
2023/05/06 10:37:34;;;;;;;;;3.00;2.50;;;;;19.00;66.48;101140.47;4965477;28;45639;-74
2023/05/06 10:40:00;;;;;;;;;3.00;3.00;;;;;19.03;65.84;101145.69;4967505;28;46528;-73
2023/05/06 10:42:29;;;;;;;;;5.00;4.00;;;;;19.24;65.63;101173.25;4957917;28;45661;-72
2023/05/06 10:44:59;;;;;;;;;5.00;3.00;;;;;19.13;65.55;101145.97;4961652;28;45429;-73
2023/05/06 10:47:25;;;;;;;;;5.50;4.50;;;;;19.16;66.00;101145.78;4958719;28;45792;-73
2023/05/06 10:50:18;;;;;;;;;5.75;4.25;;;;;19.42;65.98;101172.09;4960752;28;45745;-73
2023/05/06 10:52:45;;;;;;;;;4.00;4.00;;;;;19.20;66.25;101129.28;4972697;27;45551;-73
2023/05/06 10:55:31;;;;;;;;;4.75;4.00;;;;;19.35;65.55;101137.41;4973572;28;45424;-74
2023/05/06 10:58:01;;;;;;;;;5.00;4.25;;;;;19.24;65.66;101120.00;4964140;28;45662;-69
2023/05/06 11:00:31;;;;;;;;;3.00;3.00;;;;;19.53;65.98;101151.59;4960571;28;45808;-76
2023/05/06 11:02:59;;;;;;;;;3.25;3.25;;;;;19.44;65.03;101129.56;4971489;28;45399;-72
2023/05/06 11:05:25;;;;;;;;;4.25;3.00;;;;;19.47;65.54;101120.38;4972915;28;45736;-70
2023/05/06 11:07:52;;;;;;;;;4.00;3.00;;;;;19.61;65.49;101138.44;4967726;28;45619;-70
2023/05/06 11:10:37;;;;;;;;;4.50;3.25;;;;;19.78;65.24;101159.06;4971159;28;45699;-69
2023/05/06 11:13:26;;;;;;;;;3.00;2.25;;;;;19.81;64.85;101158.84;4971074;28;45767;-70
2023/05/06 11:15:53;;;;;;;;;1.50;1.00;;;;;19.61;65.05;101119.47;4972291;28;45812;-70
2023/05/06 11:18:25;;;;;;;;;3.75;2.75;;;;;19.89;64.82;101148.38;4960421;28;46423;-70
2023/05/06 11:21:11;;;;;;;;;4.00;2.00;;;;;19.95;64.34;101145.28;4956466;28;47739;-71
2023/05/06 11:23:45;;;;;;;;;2.50;2.50;;;;;19.98;63.80;101136.09;4953391;28;45448;-71